createdAt,value
2022-09-13T00:00:37.234Z,91.00
2022-09-13T00:03:25.984Z,91.10
2022-09-13T00:06:15.155Z,91.10
2022-09-13T00:09:02.181Z,91.20
2022-09-13T00:11:49.423Z,91.30
2022-09-13T00:14:36.265Z,91.30
2022-09-13T00:17:23.503Z,91.30
2022-09-13T00:20:11.988Z,91.30
2022-09-13T00:22:59.007Z,91.30
2022-09-13T00:25:46.090Z,91.30
2022-09-13T00:28:32.907Z,91.60
2022-09-13T00:31:21.718Z,91.30
2022-09-13T00:34:08.677Z,91.30
2022-09-13T00:36:57.280Z,91.30
2022-09-13T00:39:48.007Z,91.40
2022-09-13T00:42:37.575Z,91.40
2022-09-13T00:45:24.532Z,91.40
2022-09-13T00:48:21.163Z,91.40
2022-09-13T00:51:09.999Z,91.40
2022-09-13T00:54:00.953Z,91.40
2022-09-13T00:56:52.186Z,91.40
2022-09-13T00:59:43.815Z,91.40
2022-09-13T01:02:31.514Z,91.40
2022-09-13T01:05:22.086Z,91.40
2022-09-13T01:08:16.284Z,91.40
2022-09-13T01:11:08.004Z,91.50
2022-09-13T01:13:56.937Z,91.60
2022-09-13T01:16:47.765Z,91.70
2022-09-13T01:19:36.438Z,91.80
2022-09-13T01:22:41.049Z,91.90
2022-09-13T01:25:49.002Z,91.90
2022-09-13T01:28:55.436Z,91.90
2022-09-13T01:31:52.613Z,92.00
2022-09-13T01:34:55.950Z,92.00
2022-09-13T01:37:55.591Z,92.00
2022-09-13T01:41:04.521Z,92.00
2022-09-13T01:44:02.037Z,92.00
2022-09-13T01:47:00.090Z,91.90
2022-09-13T01:49:52.251Z,91.90
2022-09-13T01:52:46.915Z,91.80
2022-09-13T01:55:41.918Z,91.80
2022-09-13T01:58:36.285Z,91.80
2022-09-13T02:01:28.170Z,91.70
2022-09-13T02:04:22.877Z,91.80
2022-09-13T02:07:15.054Z,91.70
2022-09-13T02:10:07.756Z,91.80
2022-09-13T02:12:57.105Z,91.80
2022-09-13T02:15:48.761Z,91.70
2022-09-13T02:18:41.107Z,91.70
2022-09-13T02:21:33.166Z,91.70
2022-09-13T02:24:24.191Z,91.70
2022-09-13T02:27:16.287Z,91.70
2022-09-13T02:30:06.213Z,91.70
2022-09-13T02:32:57.414Z,91.70
2022-09-13T02:35:52.423Z,91.70
2022-09-13T02:38:45.404Z,91.80
2022-09-13T02:41:37.710Z,91.80
2022-09-13T02:44:29.632Z,91.70
2022-09-13T02:47:37.452Z,91.70
2022-09-13T02:50:38.003Z,91.80
2022-09-13T02:53:32.256Z,91.80
2022-09-13T02:56:26.613Z,91.80
2022-09-13T02:59:17.784Z,91.80
2022-09-13T03:02:08.234Z,91.90
2022-09-13T03:04:55.817Z,91.90
2022-09-13T03:07:43.128Z,92.00
2022-09-13T03:10:37.930Z,92.00
2022-09-13T03:13:38.972Z,92.00
2022-09-13T03:16:44.193Z,92.10
2022-09-13T03:19:50.378Z,92.10
2022-09-13T03:23:02.990Z,92.10
2022-09-13T03:25:49.578Z,92.20
2022-09-13T03:28:47.267Z,92.20
2022-09-13T03:31:38.013Z,92.20
2022-09-13T03:34:34.972Z,92.20
2022-09-13T03:37:28.683Z,92.20
2022-09-13T03:40:20.590Z,92.30
2022-09-13T03:43:14.643Z,92.30
2022-09-13T03:46:06.748Z,92.30
2022-09-13T03:48:55.834Z,92.30
2022-09-13T03:51:44.499Z,92.30
2022-09-13T03:54:33.534Z,92.30
2022-09-13T03:57:22.945Z,92.40
2022-09-13T04:00:15.306Z,92.40
2022-09-13T04:03:03.927Z,92.40
2022-09-13T04:05:51.085Z,92.40
2022-09-13T04:08:38.038Z,92.40
2022-09-13T04:11:25.115Z,92.40
2022-09-13T04:14:12.228Z,92.50
2022-09-13T04:16:59.666Z,92.50
2022-09-13T04:19:48.266Z,92.50
2022-09-13T04:22:35.180Z,92.50
2022-09-13T04:25:22.996Z,92.60
2022-09-13T04:28:10.074Z,92.50
2022-09-13T04:30:57.120Z,92.60
2022-09-13T04:33:44.280Z,92.60
2022-09-13T04:36:32.771Z,92.60
2022-09-13T04:39:20.316Z,92.70
2022-09-13T04:42:08.467Z,92.70
2022-09-13T04:44:55.863Z,92.80
2022-09-13T04:47:43.112Z,92.80
2022-09-13T04:50:29.980Z,92.80
2022-09-13T04:53:18.672Z,92.80
2022-09-13T04:56:07.616Z,92.90
2022-09-13T04:58:56.803Z,92.90
2022-09-13T05:01:44.599Z,93.00
2022-09-13T05:04:31.776Z,93.00
2022-09-13T05:07:18.673Z,93.00
2022-09-13T05:10:07.627Z,93.00
2022-09-13T05:12:54.725Z,93.10
2022-09-13T05:15:41.923Z,93.10
2022-09-13T05:18:29.686Z,93.20
2022-09-13T05:21:17.110Z,93.30
2022-09-13T05:24:04.170Z,93.40
2022-09-13T05:26:52.756Z,93.40
2022-09-13T05:29:40.131Z,93.50
2022-09-13T05:32:26.970Z,93.60
2022-09-13T05:35:14.063Z,93.60
2022-09-13T05:38:01.301Z,93.70
2022-09-13T05:40:49.319Z,93.80
2022-09-13T05:43:38.224Z,94.00
2022-09-13T05:46:25.605Z,94.00
2022-09-13T05:49:14.142Z,94.00
2022-09-13T05:52:01.193Z,94.10
2022-09-13T05:54:48.004Z,94.10
2022-09-13T05:57:35.005Z,94.20
2022-09-13T06:00:23.346Z,94.40
2022-09-13T06:03:10.452Z,94.80
2022-09-13T06:05:58.989Z,94.40
2022-09-13T06:08:46.319Z,94.60
2022-09-13T06:11:33.688Z,94.60
2022-09-13T06:14:20.788Z,94.80
2022-09-13T06:17:09.518Z,94.80
2022-09-13T06:19:57.088Z,94.90
2022-09-13T06:22:43.977Z,95.00
2022-09-13T06:25:31.189Z,94.90
2022-09-13T06:28:20.732Z,94.90
2022-09-13T06:31:10.598Z,94.80
2022-09-13T06:34:02.572Z,94.80
2022-09-13T06:36:49.491Z,94.70
2022-09-13T06:39:36.344Z,94.50
2022-09-13T06:42:23.328Z,94.40
2022-09-13T06:45:11.955Z,94.20
2022-09-13T06:47:58.873Z,94.00
2022-09-13T06:50:47.379Z,93.70
2022-09-13T06:53:36.535Z,93.40
2022-09-13T06:56:24.953Z,93.20
2022-09-13T06:59:12.338Z,93.00
2022-09-13T07:01:59.473Z,92.80
2022-09-13T07:04:46.345Z,92.60
2022-09-13T07:07:34.688Z,92.40
2022-09-13T07:10:21.683Z,92.20
2022-09-13T07:13:08.649Z,92.00
2022-09-13T07:15:55.840Z,91.60
2022-09-13T07:18:42.824Z,91.30
2022-09-13T07:21:30.390Z,90.90
2022-09-13T07:24:20.029Z,90.60
2022-09-13T07:27:07.248Z,90.40
2022-09-13T07:29:54.242Z,90.20
2022-09-13T07:32:42.822Z,90.00
2022-09-13T07:35:29.873Z,89.50
2022-09-13T07:38:16.848Z,89.10
2022-09-13T07:41:09.080Z,88.30
2022-09-13T07:43:56.360Z,87.60
2022-09-13T07:46:43.853Z,86.10
2022-09-13T07:49:30.949Z,85.60
2022-09-13T07:52:17.701Z,85.60
2022-09-13T07:55:04.830Z,84.20
2022-09-13T07:57:53.582Z,83.30
2022-09-13T08:00:40.794Z,82.80
2022-09-13T08:03:28.057Z,81.70
2022-09-13T08:06:15.037Z,80.90
2022-09-13T08:09:02.629Z,80.40
2022-09-13T08:11:53.232Z,79.50
2022-09-13T08:14:41.751Z,78.70
2022-09-13T08:17:28.682Z,78.60
2022-09-13T08:20:15.913Z,77.40
2022-09-13T08:23:03.140Z,76.70
2022-09-13T08:25:50.073Z,76.30
2022-09-13T08:28:38.034Z,75.60
2022-09-13T08:31:27.292Z,74.50
2022-09-13T08:34:15.720Z,73.30
2022-09-13T08:37:02.782Z,73.20
2022-09-13T08:39:49.751Z,72.40
2022-09-13T08:42:51.094Z,72.20
2022-09-13T08:45:38.367Z,71.10
2022-09-13T08:48:33.937Z,70.40
2022-09-13T08:51:33.409Z,70.80
2022-09-13T08:54:21.545Z,71.00
2022-09-13T08:57:15.210Z,70.70
2022-09-13T09:00:17.757Z,70.20
2022-09-13T09:03:20.131Z,69.20
2022-09-13T09:06:15.563Z,68.90
2022-09-13T09:09:09.012Z,69.20
2022-09-13T09:12:00.994Z,67.30
2022-09-13T09:14:58.530Z,67.50
2022-09-13T09:17:52.145Z,65.80
2022-09-13T09:20:44.100Z,65.80
2022-09-13T09:23:39.121Z,65.10
2022-09-13T09:26:29.430Z,64.00
2022-09-13T09:29:24.699Z,64.40
2022-09-13T09:32:26.537Z,63.60
2022-09-13T09:35:23.277Z,62.60
2022-09-13T09:38:31.708Z,63.90
2022-09-13T09:41:27.652Z,62.40
2022-09-13T09:44:20.463Z,62.90
2022-09-13T09:47:16.547Z,61.40
2022-09-13T09:50:12.011Z,60.70
2022-09-13T09:53:04.171Z,59.90
2022-09-13T09:55:59.427Z,60.00
2022-09-13T09:58:49.023Z,60.10
2022-09-13T10:01:40.116Z,59.90
2022-09-13T10:04:27.658Z,58.90
2022-09-13T10:07:29.669Z,58.50
2022-09-13T10:10:23.668Z,58.20
2022-09-13T10:13:17.583Z,57.80
2022-09-13T10:16:08.207Z,56.40
2022-09-13T10:18:55.836Z,56.00
2022-09-13T10:21:43.342Z,55.60
2022-09-13T10:24:30.941Z,56.00
2022-09-13T10:27:33.895Z,54.90
2022-09-13T10:30:34.189Z,54.40
2022-09-13T10:33:29.901Z,53.40
2022-09-13T10:36:35.271Z,54.20
2022-09-13T10:39:29.882Z,53.30
2022-09-13T10:42:23.697Z,54.60
2022-09-13T10:45:23.846Z,55.10
2022-09-13T10:48:15.452Z,54.20
2022-09-13T10:51:07.561Z,54.00
2022-09-13T10:54:10.527Z,53.70
2022-09-13T10:56:57.570Z,54.40
2022-09-13T10:59:53.778Z,54.50
2022-09-13T11:02:57.480Z,53.40
2022-09-13T11:05:51.071Z,53.70
2022-09-13T11:08:47.695Z,52.70
2022-09-13T11:11:40.154Z,52.40
2022-09-13T11:14:43.448Z,52.10
2022-09-13T11:17:44.707Z,51.70
2022-09-13T11:20:43.157Z,52.10
2022-09-13T11:23:58.650Z,51.10
2022-09-13T11:26:59.823Z,51.00
2022-09-13T11:30:01.488Z,49.40
2022-09-13T11:33:10.379Z,50.00
2022-09-13T11:36:22.522Z,50.60
2022-09-13T11:39:20.614Z,51.50
2022-09-13T11:42:23.654Z,51.50
2022-09-13T11:45:21.802Z,50.50
2022-09-13T11:48:21.679Z,50.20
2022-09-13T11:51:20.646Z,51.10
2022-09-13T11:54:24.004Z,49.40
2022-09-13T11:57:16.210Z,49.50
2022-09-13T12:00:08.004Z,49.30
2022-09-13T12:03:03.970Z,49.20
2022-09-13T12:05:55.129Z,49.00
2022-09-13T12:08:46.610Z,48.40
2022-09-13T12:11:37.694Z,48.00
2022-09-13T12:14:30.630Z,48.20
2022-09-13T12:17:25.960Z,47.80
2022-09-13T12:20:19.911Z,48.50
2022-09-13T12:23:16.214Z,48.10
2022-09-13T12:26:07.374Z,48.90
2022-09-13T12:28:59.507Z,49.30
2022-09-13T12:31:47.035Z,48.00
2022-09-13T12:34:41.998Z,49.80
2022-09-13T12:37:47.232Z,48.50
2022-09-13T12:40:52.717Z,47.20
2022-09-13T12:43:57.936Z,48.10
2022-09-13T12:47:09.991Z,48.80
2022-09-13T12:49:58.899Z,50.00
2022-09-13T12:53:03.741Z,50.00
2022-09-13T12:56:03.352Z,49.70
2022-09-13T12:59:15.570Z,49.90
2022-09-13T13:02:05.795Z,49.40
2022-09-13T13:04:57.564Z,49.50
2022-09-13T13:07:52.373Z,48.00
2022-09-13T13:10:40.432Z,48.50
2022-09-13T13:13:36.727Z,48.10
2022-09-13T13:16:28.897Z,47.10
2022-09-13T13:19:33.241Z,46.80
2022-09-13T13:22:50.060Z,45.40
2022-09-13T13:25:39.301Z,46.80
2022-09-13T13:28:56.001Z,46.30
2022-09-13T13:31:48.022Z,47.30
2022-09-13T13:34:42.415Z,47.10
2022-09-13T13:37:36.779Z,45.30
2022-09-13T13:40:27.172Z,44.80
2022-09-13T13:43:31.693Z,45.50
2022-09-13T13:46:29.443Z,46.90
2022-09-13T13:49:46.263Z,46.30
2022-09-13T13:52:39.057Z,47.30
2022-09-13T13:55:40.277Z,46.10
2022-09-13T13:58:48.354Z,45.30
2022-09-13T14:01:35.330Z,45.30
2022-09-13T14:04:54.629Z,45.90
2022-09-13T14:08:04.746Z,45.60
2022-09-13T14:10:52.845Z,45.40
2022-09-13T14:13:54.721Z,45.60
2022-09-13T14:16:58.834Z,46.90
2022-09-13T14:19:48.404Z,46.70
2022-09-13T14:22:36.872Z,47.50
2022-09-13T14:25:26.457Z,47.10
2022-09-13T14:28:19.165Z,46.00
2022-09-13T14:31:06.346Z,45.90
2022-09-13T14:33:54.189Z,45.30
2022-09-13T14:36:53.830Z,46.60
2022-09-13T14:39:56.106Z,45.40
2022-09-13T14:42:45.069Z,46.10
2022-09-13T14:45:36.926Z,46.70
2022-09-13T14:48:27.191Z,47.70
2022-09-13T14:51:19.438Z,46.50
2022-09-13T14:54:12.802Z,47.30
2022-09-13T14:57:04.278Z,46.10
2022-09-13T14:59:54.594Z,45.80
2022-09-13T15:02:43.412Z,45.30
2022-09-13T15:05:34.363Z,46.60
2022-09-13T15:08:39.115Z,46.00
2022-09-13T15:11:33.448Z,48.30
2022-09-13T15:14:28.549Z,48.80
2022-09-13T15:17:16.099Z,47.10
2022-09-13T15:20:06.900Z,48.40
2022-09-13T15:22:54.801Z,49.10
2022-09-13T15:25:41.939Z,49.70
2022-09-13T15:28:31.275Z,50.80
2022-09-13T15:31:27.040Z,52.30
2022-09-13T15:34:23.654Z,50.90
2022-09-13T15:37:13.034Z,52.80
2022-09-13T15:40:16.683Z,53.70
2022-09-13T15:43:03.815Z,54.80
2022-09-13T15:45:50.875Z,51.90
2022-09-13T15:48:47.214Z,56.40
2022-09-13T15:51:38.962Z,58.10
2022-09-13T15:54:33.285Z,58.70
2022-09-13T15:57:23.980Z,57.70
2022-09-13T16:00:16.015Z,59.50
2022-09-13T16:03:02.928Z,60.20
2022-09-13T16:05:51.579Z,61.00
2022-09-13T16:08:39.642Z,62.60
2022-09-13T16:11:27.039Z,63.40
2022-09-13T16:14:14.120Z,65.10
2022-09-13T16:17:04.244Z,65.30
2022-09-13T16:19:51.101Z,65.60
2022-09-13T16:22:39.423Z,65.70
2022-09-13T16:25:26.578Z,66.60
2022-09-13T16:28:20.157Z,67.90
2022-09-13T16:31:09.795Z,68.20
2022-09-13T16:33:56.886Z,68.00
2022-09-13T16:36:43.958Z,66.90
2022-09-13T16:39:32.286Z,67.50
2022-09-13T16:42:20.153Z,68.80
2022-09-13T16:45:08.439Z,67.70
2022-09-13T16:47:55.604Z,67.20
2022-09-13T16:50:43.279Z,62.40
2022-09-13T16:53:33.613Z,63.50
2022-09-13T16:56:24.573Z,65.00
2022-09-13T16:59:11.843Z,65.80
2022-09-13T17:01:58.968Z,67.00
2022-09-13T17:04:46.955Z,66.90
2022-09-13T17:07:34.358Z,67.20
2022-09-13T17:10:22.369Z,65.10
2022-09-13T17:13:12.161Z,67.00
2022-09-13T17:15:59.592Z,68.00
2022-09-13T17:18:46.766Z,65.20
2022-09-13T17:21:35.038Z,67.20
2022-09-13T17:24:22.155Z,67.60
2022-09-13T17:27:09.504Z,67.80
2022-09-13T17:29:58.062Z,67.60
2022-09-13T17:32:44.953Z,68.10
2022-09-13T17:35:32.186Z,69.40
2022-09-13T17:38:19.328Z,69.70
2022-09-13T17:41:08.884Z,69.50
2022-09-13T17:43:55.977Z,70.30
2022-09-13T17:46:44.762Z,70.00
2022-09-13T17:49:31.777Z,70.60
2022-09-13T17:52:18.788Z,71.20
2022-09-13T17:55:06.859Z,71.30
2022-09-13T17:57:55.551Z,71.40
2022-09-13T18:00:42.562Z,71.70
2022-09-13T18:03:31.848Z,72.10
2022-09-13T18:06:18.762Z,72.60
2022-09-13T18:09:06.512Z,72.30
2022-09-13T18:11:53.494Z,73.00
2022-09-13T18:14:40.884Z,73.00
2022-09-13T18:17:28.055Z,72.90
2022-09-13T18:20:16.778Z,72.80
2022-09-13T18:23:04.019Z,73.10
2022-09-13T18:26:02.961Z,73.40
2022-09-13T18:28:56.230Z,73.50
2022-09-13T18:31:44.010Z,73.80
2022-09-13T18:34:31.299Z,74.40
2022-09-13T18:37:19.542Z,74.10
2022-09-13T18:40:09.335Z,74.20
2022-09-13T18:42:57.240Z,74.00
2022-09-13T18:45:44.441Z,74.50
2022-09-13T18:48:32.976Z,74.80
2022-09-13T18:51:22.802Z,74.90
2022-09-13T18:54:16.338Z,75.50
2022-09-13T18:57:03.538Z,75.40
2022-09-13T18:59:50.697Z,75.60
2022-09-13T19:02:52.049Z,76.20
2022-09-13T19:05:45.362Z,75.70
2022-09-13T19:08:32.171Z,76.00
2022-09-13T19:11:45.297Z,75.60
2022-09-13T19:14:30.659Z,75.70
2022-09-13T19:17:17.864Z,76.60
2022-09-13T19:20:06.022Z,76.80
2022-09-13T19:22:53.791Z,77.40
2022-09-13T19:25:40.764Z,77.40
2022-09-13T19:28:29.213Z,77.80
2022-09-13T19:31:17.213Z,78.00
2022-09-13T19:34:06.328Z,78.30
2022-09-13T19:36:58.190Z,78.10
2022-09-13T19:39:46.778Z,78.30
2022-09-13T19:42:33.730Z,78.40
2022-09-13T19:45:22.779Z,78.70
2022-09-13T19:48:39.739Z,79.50
2022-09-13T19:51:19.941Z,79.10
2022-09-13T19:54:07.899Z,79.40
2022-09-13T19:56:55.091Z,79.60
2022-09-13T19:59:41.950Z,79.60
2022-09-13T20:02:30.229Z,80.20
2022-09-13T20:05:18.048Z,80.20
2022-09-13T20:08:05.405Z,80.50
2022-09-13T20:10:52.715Z,80.60
2022-09-13T20:13:40.275Z,80.70
2022-09-13T20:16:29.440Z,81.00
2022-09-13T20:22:27.746Z,81.40
2022-09-13T20:25:14.879Z,81.70
2022-09-13T20:28:02.107Z,81.80
2022-09-13T20:30:55.556Z,82.00
2022-09-13T20:33:43.240Z,82.10
2022-09-13T20:36:34.178Z,82.60
2022-09-13T20:39:21.012Z,82.60
2022-09-13T20:42:08.236Z,82.90
2022-09-13T20:44:55.356Z,83.30
2022-09-13T20:47:42.206Z,83.40
2022-09-13T20:50:28.992Z,83.50
2022-09-13T20:53:17.525Z,84.00
2022-09-13T20:56:04.903Z,84.00
2022-09-13T20:58:57.414Z,84.10
2022-09-13T21:01:45.224Z,84.40
2022-09-13T21:04:32.509Z,84.60
2022-09-13T21:07:33.529Z,85.00
2022-09-13T21:10:21.230Z,85.30
2022-09-13T21:13:07.182Z,85.60
2022-09-13T21:15:52.882Z,85.70
2022-09-13T21:18:41.463Z,86.00
2022-09-13T21:21:31.565Z,86.20
2022-09-13T21:24:18.734Z,86.30
2022-09-13T21:27:07.186Z,86.50
2022-09-13T21:29:54.313Z,86.70
2022-09-13T21:32:42.284Z,86.90
2022-09-13T21:35:29.354Z,86.90
2022-09-13T21:38:16.001Z,87.10
2022-09-13T21:41:05.277Z,87.10
2022-09-13T21:43:54.383Z,87.40
2022-09-13T21:46:42.406Z,87.70
2022-09-13T21:49:29.741Z,87.90
2022-09-13T21:52:16.981Z,88.00
2022-09-13T21:55:04.309Z,88.20
2022-09-13T21:57:52.137Z,88.40
2022-09-13T22:00:41.095Z,88.60
2022-09-13T22:03:27.991Z,88.90
2022-09-13T22:06:17.054Z,89.20
2022-09-13T22:09:07.589Z,89.00
2022-09-13T22:11:55.113Z,89.40
2022-09-13T22:14:41.844Z,89.60
2022-09-13T22:17:30.737Z,89.80
2022-09-13T22:20:17.997Z,90.00
2022-09-13T22:23:04.839Z,90.00
2022-09-13T22:25:53.158Z,89.70
2022-09-13T22:28:40.363Z,89.60
2022-09-13T22:31:30.367Z,90.00
2022-09-13T22:34:21.231Z,90.00
2022-09-13T22:37:08.338Z,90.10
2022-09-13T22:39:57.630Z,90.20
2022-09-13T22:42:44.673Z,90.30
2022-09-13T22:45:31.954Z,90.40
2022-09-13T22:48:19.175Z,90.20
2022-09-13T22:51:08.937Z,90.30
2022-09-13T22:53:56.876Z,90.30
2022-09-13T22:56:44.328Z,90.30
2022-09-13T22:59:31.086Z,90.50
2022-09-13T23:02:18.058Z,90.40
2022-09-13T23:05:05.480Z,90.40
2022-09-13T23:07:54.021Z,90.50
2022-09-13T23:10:40.940Z,90.50
2022-09-13T23:13:27.883Z,90.50
2022-09-13T23:16:18.294Z,90.60
2022-09-13T23:19:05.471Z,90.80
2022-09-13T23:21:54.892Z,90.70
2022-09-13T23:24:43.425Z,90.70
2022-09-13T23:27:31.327Z,90.80
2022-09-13T23:30:18.494Z,90.80
2022-09-13T23:33:06.091Z,90.70
2022-09-13T23:35:59.258Z,90.80
2022-09-13T23:38:50.227Z,90.80
2022-09-13T23:41:38.989Z,90.90
2022-09-13T23:44:27.397Z,91.00
2022-09-13T23:47:14.707Z,90.90
2022-09-13T23:50:01.572Z,90.90
2022-09-13T23:52:48.371Z,91.00
2022-09-13T23:55:35.478Z,91.00
2022-09-13T23:58:24.143Z,91.00
